• Join FlightAware (Why Join?)
  • Login
  • US Flag 
07:36AM EST


 

Airport Tracker/Info


-or-


 

Live Flight TrackerFlight Track Log ✈ SWA2182 ✈ 17-Apr-2013 ✈ KSMF - KSAN

Flight Track Log - Related Links

Times and Time Zones

All times are in EDT time to prevent confusion due to time zone crossing. See the SWA2182 flight status page for this flight to view local times or setup timezone preferences in your user account.

Time Position Orientation Groundspeed Altitude Reporting Facility
EDT Latitude Longitude Course Direction KTS MPH feet Rate Location/Type
09:07AM 38.7333 -121.5833 109° East 187 215 3,800  Level Northern Cal TRACON
09:08AM 38.7000 -121.5000 117° Southeast 262 302 6,600 3,120 Climbing Northern Cal TRACON
09:10AM 38.6106 -121.3344 125° Southeast 322 371 13,200 3,540 Climbing Oakland Center
09:11AM 38.5483 -121.2275 127° Southeast 368 423 17,200 3,540 Climbing Oakland Center
09:12AM 38.2977 -120.9481 109° East  Level FlightAware Approximate
09:12AM 38.4867 -121.1206 126° Southeast 385 443 20,400  Level Oakland Center
09:13AM 38.4181 -121.0019 126° Southeast 407 468 24,000 3,060 Climbing Oakland Center
09:14AM 38.3447 -120.8775 127° Southeast 432 497 26,600 2,460 Climbing Oakland Center
09:15AM 38.2678 -120.7456 127° Southeast 457 526 29,000 2,280 Climbing Oakland Center
09:16AM 38.1725 -120.6217 134° Southeast 488 562 31,300 2,280 Climbing Oakland Center
09:17AM 38.0586 -120.5125 143° Southeast 508 585 33,700 2,280 Climbing Oakland Center
09:18AM 37.9481 -120.4019 142° Southeast 506 582 35,900 2,400 Climbing Oakland Center
09:19AM 37.8372 -120.2939 142° Southeast 504 580 38,600 1,500 Climbing Oakland Center
09:20AM 37.7267 -120.2011 146° Southeast 482 555 39,000 180 Climbing Oakland Center
09:21AM 37.5989 -120.1450 161° South 478 550 39,000  Level Oakland Center
09:22AM 37.4714 -120.0839 159° South 484 557 39,000  Level Oakland Center
09:23AM 37.3456 -120.0228 159° South 482 555 39,000  Level Oakland Center
09:24AM 37.2194 -119.9611 159° South 485 558 39,000  Level Oakland Center
09:25AM 37.0731 -119.8900 159° South 485 558 39,000  Level Oakland Center
09:26AM 36.9442 -119.8272 159° South 485 558 39,000  Level Oakland Center
09:27AM 36.8181 -119.7667 159° South 486 559 39,000  Level Oakland Center
09:28AM 36.6917 -119.7069 159° South 485 558 39,000  Level Oakland Center
09:29AM 36.5642 -119.6439 158° South 489 563 39,000  Level Oakland Center
09:30AM 36.4372 -119.5836 159° South 489 563 39,000  Level Oakland Center
09:31AM 36.3111 -119.5231 159° South 487 560 39,000  Level Oakland Center
09:32AM 36.1839 -119.4628 159° South 487 560 39,000  Level Oakland Center
09:33AM 36.0567 -119.4039 159° South 486 559 39,000  Level Oakland Center
09:34AM 35.9317 -119.3450 159° South 482 555 39,000  Level Oakland Center
09:35AM 35.8064 -119.2878 160° South 477 549 39,000  Level Oakland Center
09:36AM 35.6792 -119.2272 159° South 485 558 39,000  Level Oakland Center
09:37AM 35.5556 -119.1703 159° South 476 548 39,000  Level Oakland Center
09:38AM 35.4328 -119.1133 159° South 470 541 39,000  Level Oakland Center
09:39AM 35.3086 -119.0569 160° South 472 543 39,000  Level Oakland Center
09:39AM 35.3094 -119.0572 345° North 470 541 39,000  Level Los Angeles Center
09:40AM 35.1614 -118.9883 159° South 473 544 39,000  Level Los Angeles Center
09:41AM 35.0136 -118.9211 160° South 471 542 39,000  Level Los Angeles Center
09:42AM 34.8939 -118.8661 159° South 470 541 39,000  Level Los Angeles Center
09:43AM 34.7650 -118.8078 160° South 465 535 39,000  Level Los Angeles Center
09:44AM 34.6450 -118.7533 160° South 463 533 39,000  Level Los Angeles Center
09:45AM 34.5231 -118.6983 160° South 465 535 39,000  Level Los Angeles Center
09:46AM 34.4014 -118.6433 160° South 467 537 39,000  Level Los Angeles Center
09:47AM 34.2792 -118.5892 160° South 468 539 39,000 -420 Level Los Angeles Center
09:48AM 34.1581 -118.5342 159° South 465 535 38,200 -840 Descending Los Angeles Center
09:49AM 34.0369 -118.4806 160° South 465 535 37,300 -960 Descending Los Angeles Center
09:50AM 33.9217 -118.4119 154° Southeast 464 534 36,300 -1,500 Descending Los Angeles Center
09:51AM 33.8172 -118.2864 135° Southeast 493 567 34,300 -2,520 Descending Los Angeles Center
09:52AM 33.7228 -118.1639 133° Southeast 498 573 31,200 -3,000 Descending Los Angeles Center
09:53AM 33.6233 -118.0358 133° Southeast 518 596 28,200 -2,820 Descending Los Angeles Center
09:55AM 33.5278 -117.9161 134° Southeast 504 580 25,500 -2,880 Descending Los Angeles Center
09:55AM 33.4333 -117.7833 130° Southeast 477 549 22,600 -2,880 Descending Southern California TRACON
09:56AM 33.3333 -117.6667 136° Southeast 464 534 20,000 -2,460 Descending Southern California TRACON
09:57AM 33.2500 -117.5833 140° Southeast 449 517 18,000 -2,880 Descending Southern California TRACON
09:58AM 33.1500 -117.5000 145° Southeast 455 524 14,600 -2,940 Descending Southern California TRACON
09:59AM 33.0500 -117.4333 151° Southeast 422 486 12,200 -2,160 Descending Southern California TRACON
10:00AM 33.0269 -117.4133 144° Southeast 437 503 11,800 -2,160 Descending Los Angeles Center
10:00AM 32.9667 -117.3667 147° Southeast 394 453 10,300 -1,320 Descending Southern California TRACON
10:01AM 32.9000 -117.3000 140° Southeast 339 390 9,900 -840 Descending Southern California TRACON
10:02AM 32.8511 -117.2592 145° Southeast 333 383 8,900 -1,740 Descending Los Angeles Center
10:03AM 32.8133 -117.1742 118° Southeast 305 351 6,900 -1,500 Descending Los Angeles Center
10:04AM 32.7833 -117.0667 108° East 249 287 5,800 -780 Descending Southern California TRACON
10:05AM 32.7667 -117.0000 107° East 229 264 5,300 -480 Descending Southern California TRACON
10:06AM 32.7333 -116.9333 121° Southeast 220 253 5,000 -720 Descending Southern California TRACON
10:07AM 32.6833 -116.9500 196° South 212 244 4,000 -1,020 Descending Southern California TRACON
10:08AM 32.7000 -117.0000 292° West 173 199 3,100 -1,020 Descending Southern California TRACON
10:09AM 32.7000 -117.0500 270° West 164 189 2,200 -900 Descending Southern California TRACON
10:10AM 32.7167 -117.1000 292° West 155 178 1,400 -780 Descending Southern California TRACON
10:11AM 32.7167 -117.1500 270° West 133 153 700 -840 Descending Southern California TRACON
10:11AM 32.7264 -117.1606 318° Northwest 140 161 300 -360 Descending Los Angeles Center
10:12AM 32.7367 -117.2006 287° West 137 158 200 -120 Descending Los Angeles Center
10:14AM 32.7333 -117.1833 90° East  Level FlightAware Approximate